Time;durP1;ratioP1;P1;durP2;ratioP2;P2;SDS_P1;SDS_P2;PMS_P1;PMS_P2;Temp;Humidity;BMP_temperature;BMP_pressure;BME280_temperature;BME280_humidity;BME280_pressure;Samples;Min_cycle;Max_cycle;Signal;HPM_P1;HPM_P2
2023/09/04 00:01:23;;;;;;;0.95;0.75;;;17.80;74.30;;;;;;5112089;27;20118;-72
2023/09/04 00:03:49;;;;;;;1.45;0.98;;;17.80;74.40;;;;;;5101611;28;20047;-72
2023/09/04 00:06:14;;;;;;;0.70;0.70;;;17.70;74.60;;;;;;5110586;27;20560;-72
2023/09/04 00:08:40;;;;;;;1.02;0.70;;;17.70;74.70;;;;;;5108945;27;20020;-72
2023/09/04 00:11:06;;;;;;;0.65;0.63;;;17.60;74.70;;;;;;5105954;28;20024;-72
2023/09/04 00:13:31;;;;;;;0.52;0.47;;;17.60;74.80;;;;;;5108991;28;20110;-71
2023/09/04 00:15:57;;;;;;;0.82;0.60;;;17.60;74.80;;;;;;5109050;28;20059;-71
2023/09/04 00:18:24;;;;;;;1.00;0.50;;;17.60;74.80;;;;;;5109016;28;20028;-71
2023/09/04 00:20:52;;;;;;;0.85;0.60;;;17.60;74.70;;;;;;5107674;27;20027;-71
2023/09/04 00:23:17;;;;;;;0.70;0.70;;;17.60;74.80;;;;;;5108942;28;20027;-71
2023/09/04 00:25:44;;;;;;;0.90;0.57;;;17.50;74.80;;;;;;5106205;28;20555;-71
2023/09/04 00:28:09;;;;;;;1.17;0.60;;;17.60;74.90;;;;;;5109041;28;20031;-72
2023/09/04 00:30:35;;;;;;;3.53;0.60;;;17.50;74.80;;;;;;5109016;28;20028;-72
2023/09/04 00:33:01;;;;;;;1.67;0.50;;;17.50;74.90;;;;;;5112944;27;20102;-72
2023/09/04 00:35:26;;;;;;;0.95;0.50;;;17.50;74.90;;;;;;5105234;28;20297;-72
2023/09/04 00:37:52;;;;;;;0.80;0.55;;;17.50;74.90;;;;;;5104274;28;20100;-72
2023/09/04 00:40:18;;;;;;;0.30;0.30;;;17.50;74.90;;;;;;5107258;28;20034;-72
2023/09/04 00:42:43;;;;;;;0.80;0.63;;;17.50;75.00;;;;;;5106971;28;20101;-71
2023/09/04 00:45:11;;;;;;;0.50;0.50;;;17.50;74.90;;;;;;5103899;27;20535;-72
2023/09/04 00:47:40;;;;;;;0.45;0.40;;;17.50;75.00;;;;;;5108002;28;20049;-72
2023/09/04 00:50:09;;;;;;;0.68;0.65;;;17.50;75.00;;;;;;5106713;28;20165;-72
2023/09/04 00:52:35;;;;;;;0.35;0.32;;;17.40;74.90;;;;;;5108817;28;20088;-72
2023/09/04 00:55:03;;;;;;;1.00;0.68;;;17.40;75.00;;;;;;5105509;28;20038;-72
2023/09/04 00:57:30;;;;;;;0.80;0.60;;;17.40;75.10;;;;;;5105704;28;20031;-71
2023/09/04 00:59:57;;;;;;;2.63;0.50;;;17.40;75.00;;;;;;5108519;28;20024;-71
2023/09/04 01:02:23;;;;;;;0.73;0.60;;;17.40;75.10;;;;;;5109380;28;20541;-72
2023/09/04 01:04:48;;;;;;;0.80;0.77;;;17.30;75.00;;;;;;5112072;27;20036;-71
2023/09/04 01:07:14;;;;;;;2.08;0.85;;;17.30;75.10;;;;;;5109756;28;20055;-71
2023/09/04 01:09:40;;;;;;;0.52;0.52;;;17.30;75.30;;;;;;5110594;28;20028;-72
2023/09/04 01:12:10;;;;;;;0.82;0.70;;;17.30;75.20;;;;;;5111593;27;20027;-71
2023/09/04 01:14:36;;;;;;;1.08;0.82;;;17.20;75.30;;;;;;5109978;27;20050;-71
2023/09/04 01:17:03;;;;;;;1.00;0.90;;;17.20;75.30;;;;;;5111576;27;20028;-71
2023/09/04 01:19:29;;;;;;;0.52;0.52;;;17.20;75.30;;;;;;5110439;28;20081;-71
2023/09/04 01:21:55;;;;;;;0.70;0.68;;;17.20;75.30;;;;;;5111944;28;20028;-71
2023/09/04 01:24:20;;;;;;;0.77;0.73;;;17.10;75.30;;;;;;5110412;28;20193;-71
2023/09/04 01:27:10;;;;;;;0.73;0.68;;;17.10;75.30;;;;;;5108305;27;20020;-71
2023/09/04 01:29:58;;;;;;;0.60;0.50;;;17.10;75.30;;;;;;5107256;27;20632;-71
2023/09/04 01:32:32;;;;;;;1.75;1.15;;;17.10;75.30;;;;;;5109999;27;20024;-72
2023/09/04 01:35:01;;;;;;;0.88;0.85;;;17.00;75.40;;;;;;5109547;28;20024;-72
2023/09/04 01:37:27;;;;;;;0.60;0.60;;;17.00;75.40;;;;;;5109653;28;20045;-72
2023/09/04 01:39:54;;;;;;;0.77;0.70;;;17.00;75.40;;;;;;5097348;28;20032;-72
2023/09/04 01:42:20;;;;;;;0.95;0.50;;;17.00;75.50;;;;;;5109822;28;20069;-72
2023/09/04 01:44:45;;;;;;;3.38;0.65;;;17.00;75.50;;;;;;5109438;27;20113;-72
2023/09/04 01:47:11;;;;;;;0.40;0.40;;;17.00;75.50;;;;;;5114302;27;20016;-72
2023/09/04 01:49:37;;;;;;;0.82;0.82;;;16.90;75.50;;;;;;5111914;28;20391;-72
2023/09/04 01:52:02;;;;;;;1.60;0.93;;;16.90;76.20;;;;;;5109061;28;20042;-71
2023/09/04 01:54:29;;;;;;;0.63;0.63;;;16.90;75.60;;;;;;5108202;28;20036;-71
2023/09/04 01:56:54;;;;;;;3.92;0.68;;;16.90;75.70;;;;;;5107060;27;20036;-71
2023/09/04 01:59:20;;;;;;;0.88;0.60;;;16.90;75.80;;;;;;5112199;27;20421;-71
2023/09/04 02:01:46;;;;;;;0.75;0.50;;;16.90;75.90;;;;;;5106739;28;20122;-71
2023/09/04 02:04:12;;;;;;;1.23;0.93;;;16.80;75.90;;;;;;5114396;27;20020;-71
2023/09/04 02:06:37;;;;;;;0.75;0.75;;;16.80;75.90;;;;;;5106616;27;20055;-71
2023/09/04 02:09:06;;;;;;;1.30;1.05;;;16.80;75.90;;;;;;5111565;28;20116;-72
2023/09/04 02:11:31;;;;;;;1.10;0.75;;;16.80;76.10;;;;;;5108920;27;20486;-71
2023/09/04 02:13:57;;;;;;;0.57;0.52;;;16.80;76.10;;;;;;5091600;28;20059;-71
2023/09/04 02:16:23;;;;;;;1.58;0.95;;;16.80;76.10;;;;;;5109548;28;20109;-72
2023/09/04 02:18:50;;;;;;;1.00;0.85;;;16.80;76.30;;;;;;5111211;27;20042;-72
2023/09/04 02:21:16;;;;;;;0.85;0.82;;;16.70;76.20;;;;;;5105680;28;20070;-72
2023/09/04 02:23:42;;;;;;;1.20;0.70;;;16.70;76.20;;;;;;5112039;27;20063;-71
2023/09/04 02:26:08;;;;;;;0.70;0.55;;;16.70;76.20;;;;;;5110181;28;20027;-71
2023/09/04 02:28:34;;;;;;;1.77;1.23;;;16.70;76.20;;;;;;5111802;27;20498;-72
2023/09/04 02:31:08;;;;;;;0.57;0.57;;;16.70;76.10;;;;;;5109515;27;20020;-72
2023/09/04 02:33:34;;;;;;;1.23;1.13;;;16.70;76.10;;;;;;5108859;28;20031;-72
2023/09/04 02:36:00;;;;;;;0.70;0.70;;;16.70;76.20;;;;;;5105669;27;20028;-72
2023/09/04 02:38:26;;;;;;;1.38;0.80;;;16.70;76.20;;;;;;5109975;28;20027;-72
2023/09/04 02:40:51;;;;;;;0.95;0.77;;;16.70;76.20;;;;;;5102908;27;20448;-72
2023/09/04 02:43:17;;;;;;;0.65;0.50;;;16.60;76.20;;;;;;5105506;27;20390;-72
2023/09/04 02:45:44;;;;;;;0.75;0.60;;;16.60;76.10;;;;;;5110466;28;20483;-72
2023/09/04 02:48:10;;;;;;;1.45;1.27;;;16.60;76.10;;;;;;5091636;28;20418;-72
2023/09/04 02:50:35;;;;;;;1.38;1.00;;;16.60;76.20;;;;;;5092315;28;20031;-72
2023/09/04 02:53:01;;;;;;;1.92;0.55;;;16.50;76.20;;;;;;5109426;28;20038;-72
2023/09/04 02:55:27;;;;;;;0.73;0.70;;;16.50;76.20;;;;;;5105326;28;20532;-71
2023/09/04 02:57:53;;;;;;;0.65;0.65;;;16.50;76.30;;;;;;5109798;28;20035;-71
2023/09/04 03:00:19;;;;;;;0.93;0.60;;;16.50;76.40;;;;;;5112993;27;20031;-72
2023/09/04 03:02:45;;;;;;;0.80;0.80;;;16.50;76.40;;;;;;5108140;27;20130;-71
2023/09/04 03:05:10;;;;;;;2.30;1.10;;;16.50;76.50;;;;;;5106127;28;20115;-72
2023/09/04 03:07:36;;;;;;;1.67;0.90;;;16.50;76.50;;;;;;5106686;28;20036;-72
2023/09/04 03:10:02;;;;;;;3.03;1.00;;;16.40;76.40;;;;;;5109615;28;20092;-72
2023/09/04 03:12:30;;;;;;;0.52;0.52;;;16.40;76.40;;;;;;5109173;28;20452;-72
2023/09/04 03:15:05;;;;;;;1.75;1.15;;;16.40;76.40;;;;;;5108325;28;20033;-72
2023/09/04 03:17:31;;;;;;;1.00;0.80;;;16.40;76.40;;;;;;5104178;28;20027;-71
2023/09/04 03:19:58;;;;;;;0.77;0.75;;;16.40;76.40;;;;;;5109773;27;20035;-71
2023/09/04 03:22:25;;;;;;;0.98;0.95;;;16.40;76.50;;;;;;5109654;28;20432;-72
2023/09/04 03:24:52;;;;;;;0.80;0.80;;;16.40;76.50;;;;;;5089962;28;20056;-71
2023/09/04 03:27:18;;;;;;;1.15;0.80;;;16.30;76.50;;;;;;5111611;27;20378;-71
2023/09/04 03:29:44;;;;;;;1.13;1.02;;;16.40;76.60;;;;;;5107835;28;20024;-72
2023/09/04 03:32:10;;;;;;;1.00;0.70;;;16.30;76.50;;;;;;5105888;28;20080;-71
2023/09/04 03:34:39;;;;;;;1.45;0.88;;;16.30;76.60;;;;;;5111495;27;20065;-71
2023/09/04 03:37:06;;;;;;;0.98;0.80;;;16.30;76.60;;;;;;5088058;28;20486;-71
2023/09/04 03:39:39;;;;;;;1.08;0.80;;;16.20;76.60;;;;;;5107536;28;20482;-71
2023/09/04 03:42:06;;;;;;;1.13;1.02;;;16.20;76.60;;;;;;5108045;28;20036;-72
2023/09/04 03:44:32;;;;;;;1.98;1.10;;;16.20;76.60;;;;;;5110731;27;20363;-72
2023/09/04 03:46:58;;;;;;;1.20;0.85;;;16.20;76.60;;;;;;5113360;27;20023;-72
2023/09/04 03:49:24;;;;;;;1.23;0.98;;;16.20;76.70;;;;;;5103753;27;20031;-72
2023/09/04 03:51:50;;;;;;;1.48;1.10;;;16.10;76.70;;;;;;5109379;27;20372;-72
2023/09/04 03:54:15;;;;;;;1.27;0.90;;;16.10;76.70;;;;;;5111049;27;20511;-71
2023/09/04 03:56:41;;;;;;;1.08;0.95;;;16.10;76.80;;;;;;5110283;27;20531;-72
2023/09/04 03:59:07;;;;;;;1.00;0.77;;;16.10;76.80;;;;;;5105738;28;20118;-72
2023/09/04 04:01:33;;;;;;;1.05;0.82;;;16.10;76.80;;;;;;5106782;28;20494;-72
2023/09/04 04:04:00;;;;;;;0.73;0.73;;;16.10;76.80;;;;;;5096178;28;20048;-72
2023/09/04 04:06:25;;;;;;;1.65;0.88;;;16.10;76.90;;;;;;5105831;28;20101;-72
2023/09/04 04:08:54;;;;;;;1.35;1.10;;;16.10;76.90;;;;;;5108890;28;20020;-72
2023/09/04 04:11:20;;;;;;;1.17;1.10;;;16.10;77.50;;;;;;5105711;28;20023;-72
2023/09/04 04:13:46;;;;;;;1.33;1.00;;;16.10;77.00;;;;;;5106589;28;20339;-72
2023/09/04 04:16:12;;;;;;;1.27;1.08;;;16.10;77.00;;;;;;5109163;27;20027;-72
2023/09/04 04:18:38;;;;;;;2.00;1.02;;;16.00;76.90;;;;;;5104870;27;20447;-72
2023/09/04 04:21:04;;;;;;;1.60;1.17;;;16.00;76.90;;;;;;5108920;28;20105;-72
2023/09/04 04:23:30;;;;;;;1.00;0.85;;;16.00;77.00;;;;;;5109024;27;20039;-72
2023/09/04 04:25:56;;;;;;;2.47;0.88;;;16.00;77.00;;;;;;5108828;28;20141;-72
2023/09/04 04:28:22;;;;;;;1.48;1.20;;;16.00;77.00;;;;;;5107988;27;20345;-72
2023/09/04 04:30:48;;;;;;;3.20;1.02;;;16.00;77.00;;;;;;5105610;28;20041;-73
2023/09/04 04:33:14;;;;;;;1.77;1.15;;;16.00;77.10;;;;;;5110741;27;20039;-72
2023/09/04 04:35:40;;;;;;;0.98;0.90;;;16.00;77.00;;;;;;5103323;28;20386;-72
2023/09/04 04:38:09;;;;;;;0.70;0.70;;;16.00;77.00;;;;;;5102595;28;20031;-72
2023/09/04 04:40:38;;;;;;;1.27;0.95;;;16.00;77.10;;;;;;5112577;28;20035;-72
2023/09/04 04:43:04;;;;;;;1.83;0.93;;;16.00;77.10;;;;;;5099833;28;20031;-73
2023/09/04 04:45:29;;;;;;;2.22;1.40;;;16.00;77.20;;;;;;5110718;28;20047;-72
2023/09/04 04:47:55;;;;;;;1.38;1.00;;;16.00;77.30;;;;;;5107272;28;20038;-72
2023/09/04 04:50:21;;;;;;;1.58;0.93;;;15.90;77.30;;;;;;5108865;28;20024;-72
2023/09/04 04:52:47;;;;;;;2.17;1.60;;;15.90;77.30;;;;;;5105519;28;20028;-72
2023/09/04 04:55:12;;;;;;;3.08;1.80;;;16.00;77.40;;;;;;5090524;28;20490;-72
2023/09/04 04:57:39;;;;;;;1.63;1.20;;;15.90;77.40;;;;;;5105857;28;20151;-72
2023/09/04 05:00:10;;;;;;;1.60;1.02;;;16.00;77.40;;;;;;5107218;28;20036;-73
2023/09/04 05:02:39;;;;;;;1.92;1.00;;;15.90;77.40;;;;;;5100186;28;20504;-73
2023/09/04 05:05:05;;;;;;;1.90;1.13;;;15.90;77.40;;;;;;5108184;28;20093;-73
2023/09/04 05:07:32;;;;;;;1.38;1.27;;;15.90;77.50;;;;;;5100576;28;20020;-73
2023/09/04 05:09:57;;;;;;;2.88;1.17;;;15.90;77.50;;;;;;5105749;28;20358;-73
2023/09/04 05:12:23;;;;;;;3.58;1.17;;;15.90;77.60;;;;;;5106591;28;20042;-73
2023/09/04 05:14:50;;;;;;;1.20;0.98;;;15.90;77.60;;;;;;5106894;28;20028;-72
2023/09/04 05:17:15;;;;;;;1.30;1.20;;;15.90;77.70;;;;;;5107359;28;20032;-72
2023/09/04 05:19:41;;;;;;;1.02;0.70;;;15.90;77.70;;;;;;5105733;28;20111;-73
2023/09/04 05:22:08;;;;;;;1.48;1.10;;;15.90;77.70;;;;;;5108772;28;20024;-73
2023/09/04 05:24:33;;;;;;;1.23;1.02;;;16.00;77.80;;;;;;5106519;28;20027;-73
2023/09/04 05:26:59;;;;;;;1.45;1.02;;;16.00;77.90;;;;;;5106207;27;20028;-72
2023/09/04 05:29:24;;;;;;;1.33;1.10;;;16.00;77.80;;;;;;5108376;28;20172;-72
2023/09/04 05:31:51;;;;;;;1.08;0.93;;;16.10;77.80;;;;;;5109124;28;20047;-73
2023/09/04 05:34:17;;;;;;;2.20;1.10;;;16.10;77.80;;;;;;5110281;28;20039;-73
2023/09/04 05:36:43;;;;;;;1.85;1.23;;;16.20;77.90;;;;;;5104716;28;20035;-73
2023/09/04 05:39:09;;;;;;;1.13;1.00;;;16.20;77.90;;;;;;5106508;28;20068;-73
2023/09/04 05:41:36;;;;;;;1.80;1.17;;;16.30;77.80;;;;;;5103120;28;20031;-73
2023/09/04 05:44:02;;;;;;;1.20;1.10;;;16.30;77.70;;;;;;5101813;28;20056;-73
2023/09/04 05:46:28;;;;;;;1.52;0.90;;;16.40;77.70;;;;;;5105714;28;20019;-73
2023/09/04 05:48:53;;;;;;;1.10;1.00;;;16.50;77.60;;;;;;5090897;28;20383;-73
2023/09/04 05:51:19;;;;;;;1.60;1.05;;;16.60;77.50;;;;;;5114141;27;20390;-73
2023/09/04 05:53:45;;;;;;;1.15;1.00;;;16.60;77.50;;;;;;5114099;27;20106;-73
2023/09/04 05:56:11;;;;;;;1.55;1.13;;;16.70;77.50;;;;;;5091696;28;20104;-73
2023/09/04 05:58:48;;;;;;;1.77;1.13;;;16.70;77.50;;;;;;5113970;27;20102;-73
2023/09/04 06:01:15;;;;;;;1.55;1.25;;;16.80;77.60;;;;;;5111439;27;20024;-73
2023/09/04 06:03:41;;;;;;;1.60;1.40;;;16.90;77.60;;;;;;5107763;28;20110;-72
2023/09/04 06:06:07;;;;;;;1.27;0.95;;;16.90;77.60;;;;;;5110905;28;20031;-73
2023/09/04 06:08:34;;;;;;;2.25;1.30;;;17.00;77.60;;;;;;5111576;28;20022;-73
2023/09/04 06:11:00;;;;;;;1.45;1.13;;;17.10;77.60;;;;;;5116805;27;20455;-73
2023/09/04 06:13:26;;;;;;;2.13;1.23;;;17.10;77.50;;;;;;5109181;27;20065;-73
2023/09/04 06:15:52;;;;;;;1.50;1.27;;;17.10;77.60;;;;;;5110966;27;20118;-73
2023/09/04 06:18:21;;;;;;;1.45;1.25;;;17.20;77.80;;;;;;5106915;28;20023;-73
2023/09/04 06:20:47;;;;;;;2.15;1.30;;;17.20;77.80;;;;;;5112076;27;20039;-73
2023/09/04 06:23:13;;;;;;;1.98;1.73;;;17.30;77.80;;;;;;5108756;28;20168;-73
2023/09/04 06:25:41;;;;;;;10.40;1.80;;;17.30;77.90;;;;;;5111279;27;20085;-73
2023/09/04 06:28:08;;;;;;;2.53;1.80;;;17.30;77.80;;;;;;5103212;28;20027;-72
2023/09/04 06:30:34;;;;;;;2.47;1.10;;;17.40;77.90;;;;;;5113264;27;20023;-73
2023/09/04 06:33:00;;;;;;;1.98;1.13;;;17.50;77.90;;;;;;5108581;27;20032;-72
2023/09/04 06:35:26;;;;;;;2.03;1.50;;;17.50;77.80;;;;;;5107817;27;20035;-70
2023/09/04 06:37:52;;;;;;;1.58;1.30;;;17.60;77.80;;;;;;5108424;28;20039;-72
2023/09/04 06:40:17;;;;;;;2.05;1.70;;;17.70;77.70;;;;;;5108435;27;20023;-74
2023/09/04 06:42:43;;;;;;;2.50;1.90;;;17.80;77.60;;;;;;5105716;28;20104;-73
2023/09/04 06:45:09;;;;;;;1.60;1.30;;;17.80;77.60;;;;;;5102736;28;20388;-71
2023/09/04 06:47:35;;;;;;;1.50;1.20;;;17.80;77.50;;;;;;5113763;27;20023;-70
2023/09/04 06:50:01;;;;;;;2.53;1.40;;;17.90;77.40;;;;;;5106930;28;20020;-69
2023/09/04 06:52:27;;;;;;;1.65;1.00;;;18.00;77.30;;;;;;5113325;27;20035;-71
2023/09/04 06:54:53;;;;;;;2.42;1.52;;;18.10;77.20;;;;;;5110051;27;20083;-69
2023/09/04 06:57:18;;;;;;;2.22;1.75;;;18.10;77.00;;;;;;5106353;27;20081;-71
2023/09/04 06:59:44;;;;;;;1.85;1.35;;;18.20;76.90;;;;;;5109409;28;20051;-71
2023/09/04 07:02:10;;;;;;;1.77;1.60;;;18.30;77.00;;;;;;5106133;27;20024;-69
2023/09/04 07:04:36;;;;;;;3.97;2.40;;;18.30;77.00;;;;;;5110455;27;20051;-70
2023/09/04 07:07:01;;;;;;;1.67;1.42;;;18.30;77.00;;;;;;5107485;28;20107;-70
2023/09/04 07:09:27;;;;;;;2.20;1.42;;;18.40;77.00;;;;;;5101660;28;20076;-70
2023/09/04 07:11:53;;;;;;;1.67;1.27;;;18.50;77.00;;;;;;5107683;28;20082;-70
2023/09/04 07:14:18;;;;;;;1.90;1.70;;;18.50;76.80;;;;;;5109145;27;20493;-69
2023/09/04 07:16:44;;;;;;;1.83;1.30;;;18.60;76.90;;;;;;5107750;28;20070;-71
2023/09/04 07:19:10;;;;;;;1.88;1.42;;;18.60;76.70;;;;;;5109556;27;20042;-67
2023/09/04 07:21:36;;;;;;;1.50;1.40;;;18.60;76.70;;;;;;5103120;28;20031;-66
2023/09/04 07:24:03;;;;;;;2.97;1.55;;;18.70;76.60;;;;;;5107524;27;20167;-65
2023/09/04 07:26:29;;;;;;;1.75;1.58;;;18.80;76.50;;;;;;5097544;27;20032;-69
2023/09/04 07:28:55;;;;;;;1.20;0.73;;;18.90;76.40;;;;;;5109393;27;20411;-72
2023/09/04 07:31:21;;;;;;;1.42;1.20;;;19.00;76.20;;;;;;5107215;27;20102;-67
2023/09/04 07:33:50;;;;;;;2.28;1.77;;;19.00;76.10;;;;;;5109028;27;20081;-68
2023/09/04 07:36:16;;;;;;;2.20;1.45;;;19.10;76.00;;;;;;5106968;28;20511;-68
2023/09/04 07:38:44;;;;;;;2.95;1.50;;;19.20;76.00;;;;;;5109210;27;20194;-69
2023/09/04 07:41:10;;;;;;;1.65;1.00;;;19.30;75.90;;;;;;5106356;28;20348;-69
2023/09/04 07:43:36;;;;;;;2.05;1.52;;;19.40;75.80;;;;;;5103252;28;20035;-69
2023/09/04 07:46:02;;;;;;;1.52;1.30;;;19.50;75.70;;;;;;5103664;27;20068;-68
2023/09/04 07:48:28;;;;;;;3.00;1.42;;;19.50;75.50;;;;;;5107326;28;20027;-68
2023/09/04 07:50:54;;;;;;;3.60;2.00;;;19.60;75.50;;;;;;5073242;28;20024;-68
2023/09/04 07:53:21;;;;;;;2.08;1.58;;;19.60;75.40;;;;;;5102546;27;20494;-68
2023/09/04 07:55:47;;;;;;;1.48;0.90;;;19.70;75.30;;;;;;5109719;28;20144;-68
2023/09/04 07:58:13;;;;;;;1.67;1.10;;;19.80;75.20;;;;;;5105739;27;21960;-68
2023/09/04 08:00:49;;;;;;;1.23;1.10;;;19.90;75.00;;;;;;5113491;27;20028;-69
2023/09/04 08:03:16;;;;;;;1.30;1.00;;;20.00;74.90;;;;;;5104445;27;20490;-68
2023/09/04 08:05:42;;;;;;;1.08;0.82;;;20.10;74.70;;;;;;5105766;27;20126;-69
2023/09/04 08:08:10;;;;;;;1.67;1.23;;;20.20;74.60;;;;;;5108305;28;20103;-68
2023/09/04 08:10:40;;;;;;;1.30;1.20;;;20.30;74.40;;;;;;5107732;28;20103;-68
2023/09/04 08:13:09;;;;;;;2.90;1.48;;;20.40;74.30;;;;;;5103495;27;20038;-68
2023/09/04 08:15:34;;;;;;;1.65;1.23;;;20.50;73.80;;;;;;5102341;28;20047;-68
2023/09/04 08:18:00;;;;;;;2.03;1.30;;;20.50;73.70;;;;;;5110626;27;20371;-68
2023/09/04 08:20:26;;;;;;;2.05;1.25;;;20.70;73.60;;;;;;5113472;27;20030;-68
2023/09/04 08:22:51;;;;;;;2.45;1.42;;;20.70;73.40;;;;;;5104812;27;20063;-69
2023/09/04 08:25:17;;;;;;;1.42;1.15;;;20.80;73.20;;;;;;5106700;28;20064;-68
2023/09/04 08:27:43;;;;;;;1.85;1.40;;;20.80;73.20;;;;;;5105554;28;20565;-69
2023/09/04 08:30:09;;;;;;;2.10;1.90;;;20.90;73.30;;;;;;5102220;28;20486;-69
2023/09/04 08:32:35;;;;;;;5.70;1.77;;;21.00;73.20;;;;;;5103853;27;20425;-68
2023/09/04 08:35:00;;;;;;;2.08;1.55;;;21.10;72.80;;;;;;5108698;28;20035;-68
2023/09/04 08:37:26;;;;;;;1.45;1.35;;;21.20;72.80;;;;;;5104547;28;20042;-68
2023/09/04 08:39:51;;;;;;;1.60;0.80;;;21.30;72.70;;;;;;5106188;28;20038;-68
2023/09/04 08:42:17;;;;;;;5.50;1.52;;;21.40;72.60;;;;;;5104576;28;20165;-68
2023/09/04 08:44:43;;;;;;;1.35;1.25;;;21.50;72.50;;;;;;5106589;28;20413;-67
2023/09/04 08:47:12;;;;;;;1.70;1.45;;;21.60;72.40;;;;;;5106390;28;20023;-68
2023/09/04 08:49:38;;;;;;;1.20;1.10;;;21.60;72.20;;;;;;5106332;28;20020;-68
2023/09/04 08:52:05;;;;;;;2.97;1.60;;;21.70;72.20;;;;;;5105243;28;20500;-68
2023/09/04 08:54:33;;;;;;;1.52;1.17;;;21.80;72.80;;;;;;5104527;28;20036;-68
2023/09/04 08:56:59;;;;;;;1.45;1.20;;;21.90;72.20;;;;;;5106744;28;20470;-68
2023/09/04 08:59:25;;;;;;;1.52;1.25;;;22.00;72.00;;;;;;5107182;28;20055;-67
2023/09/04 09:01:54;;;;;;;2.00;1.45;;;22.10;71.70;;;;;;5104426;28;20055;-67
2023/09/04 09:04:21;;;;;;;2.92;0.95;;;22.20;71.70;;;;;;5107054;28;20019;-67
2023/09/04 09:06:51;;;;;;;1.73;1.13;;;22.30;71.60;;;;;;5106930;28;20084;-66
2023/09/04 09:09:20;;;;;;;2.08;1.58;;;22.30;71.30;;;;;;5104255;28;20114;-66
2023/09/04 09:11:46;;;;;;;2.08;1.48;;;22.50;71.00;;;;;;5106530;28;20064;-66
2023/09/04 09:14:13;;;;;;;2.15;1.27;;;22.60;71.00;;;;;;5105210;28;20063;-66
2023/09/04 09:16:38;;;;;;;3.58;1.30;;;22.70;70.70;;;;;;5106343;28;20043;-66
2023/09/04 09:19:04;;;;;;;1.27;1.08;;;22.80;70.60;;;;;;5109466;28;20378;-67
2023/09/04 09:21:32;;;;;;;2.78;1.75;;;22.80;70.50;;;;;;5106035;28;20118;-67
2023/09/04 09:24:13;;;;;;;1.00;0.90;;;23.00;70.50;;;;;;5107590;28;20051;-67
2023/09/04 09:26:41;;;;;;;0.85;0.85;;;23.10;70.30;;;;;;5105649;27;20031;-67
2023/09/04 09:29:08;;;;;;;1.88;1.13;;;23.20;70.10;;;;;;5094007;27;21067;-67
2023/09/04 09:31:39;;;;;;;1.15;0.90;;;23.30;69.80;;;;;;5107423;28;20028;-67
2023/09/04 09:34:05;;;;;;;3.35;1.42;;;23.40;69.80;;;;;;5105842;27;20048;-67
2023/09/04 09:36:31;;;;;;;1.20;1.10;;;23.40;69.30;;;;;;5108222;28;20859;-67
2023/09/04 09:38:57;;;;;;;1.67;1.40;;;23.40;69.20;;;;;;5110074;28;20022;-66
2023/09/04 09:41:23;;;;;;;3.17;1.38;;;23.50;69.20;;;;;;5110791;28;20035;-67
2023/09/04 09:43:49;;;;;;;2.50;1.60;;;23.50;69.10;;;;;;5110454;27;20123;-67
2023/09/04 09:46:18;;;;;;;1.38;1.27;;;23.60;68.70;;;;;;5111285;28;20554;-68
2023/09/04 09:48:45;;;;;;;1.00;0.95;;;23.70;68.60;;;;;;5109942;28;20023;-68
2023/09/04 09:51:12;;;;;;;2.20;1.00;;;23.70;68.60;;;;;;5111704;28;20043;-68
2023/09/04 09:53:49;;;;;;;1.63;1.52;;;23.90;68.40;;;;;;5111447;28;20028;-68
2023/09/04 09:56:16;;;;;;;2.33;1.90;;;24.00;68.20;;;;;;5112762;27;20559;-67
2023/09/04 09:58:45;;;;;;;2.63;1.50;;;24.10;68.00;;;;;;5106889;27;20463;-68
2023/09/04 10:01:12;;;;;;;1.98;1.38;;;24.10;67.80;;;;;;5111836;28;20499;-68
2023/09/04 10:03:38;;;;;;;1.20;0.88;;;24.20;67.80;;;;;;5110392;28;20043;-68
2023/09/04 10:06:06;;;;;;;1.98;1.38;;;24.30;67.60;;;;;;5110588;28;20043;-67
2023/09/04 10:08:41;;;;;;;2.90;1.48;;;24.40;67.20;;;;;;5111214;28;20383;-67
2023/09/04 10:11:10;;;;;;;1.45;1.20;;;24.50;66.80;;;;;;5111050;28;20428;-68
2023/09/04 10:14:03;;;;;;;0.85;0.80;;;24.50;66.90;;;;;;5105179;28;20121;-68
2023/09/04 10:16:35;;;;;;;1.20;1.10;;;24.70;66.90;;;;;;5098480;28;20051;-68
2023/09/04 10:19:02;;;;;;;;;;;24.80;66.50;;;;;;5110081;28;20477;-67
2023/09/04 10:21:32;;;;;;;1.23;0.95;;;25.00;66.30;;;;;;5109116;28;19953;-67
2023/09/04 10:24:02;;;;;;;1.30;1.05;;;25.10;66.10;;;;;;5108346;28;20627;-67
2023/09/04 10:27:03;;;;;;;1.52;1.40;;;25.10;65.30;;;;;;5108817;28;20020;-67
2023/09/04 10:29:35;;;;;;;1.40;1.20;;;25.20;64.80;;;;;;5118324;27;20034;-68
2023/09/04 10:32:02;;;;;;;1.67;1.20;;;25.30;64.60;;;;;;5109934;28;20020;-68
2023/09/04 10:34:29;;;;;;;1.02;0.77;;;25.40;64.20;;;;;;5109133;28;20031;-68
2023/09/04 10:36:55;;;;;;;1.70;1.25;;;25.50;64.00;;;;;;5108294;28;20343;-68
2023/09/04 10:39:21;;;;;;;1.27;0.80;;;25.60;63.50;;;;;;5110436;28;20042;-67
2023/09/04 10:41:46;;;;;;;1.30;1.17;;;25.70;63.60;;;;;;5109558;28;20050;-67
2023/09/04 10:44:48;;;;;;;1.13;1.00;;;25.90;63.30;;;;;;5109324;28;20027;-67
2023/09/04 10:47:15;;;;;;;1.63;1.17;;;26.00;62.90;;;;;;5107882;28;20024;-67
2023/09/04 10:49:42;;;;;;;1.73;1.05;;;26.20;62.60;;;;;;5108156;28;20027;-66
2023/09/04 10:52:08;;;;;;;1.30;0.88;;;26.30;62.60;;;;;;5108907;28;20031;-66
2023/09/04 10:54:34;;;;;;;1.25;1.00;;;26.40;61.80;;;;;;5111762;27;20071;-66
2023/09/04 10:57:05;;;;;;;1.30;0.85;;;26.50;61.70;;;;;;5107894;28;20399;-66
2023/09/04 10:59:51;;;;;;;0.80;0.80;;;26.50;61.60;;;;;;5107348;28;20040;-66
2023/09/04 11:02:34;;;;;;;1.10;0.80;;;26.60;61.60;;;;;;5108874;28;20769;-67
2023/09/04 11:05:01;;;;;;;1.35;1.13;;;26.70;61.70;;;;;;5108989;28;20023;-67
2023/09/04 11:07:32;;;;;;;1.38;1.10;;;26.80;60.40;;;;;;5110363;28;20023;-67
2023/09/04 11:10:06;;;;;;;1.17;1.08;;;26.90;60.60;;;;;;5110850;28;20031;-68
2023/09/04 11:12:37;;;;;;;1.52;1.17;;;27.00;60.90;;;;;;5109124;28;20027;-67
2023/09/04 11:15:13;;;;;;;1.10;1.00;;;27.10;60.90;;;;;;5110427;28;20027;-66
2023/09/04 11:17:43;;;;;;;0.93;0.80;;;27.10;60.40;;;;;;5107765;28;20059;-66
2023/09/04 11:20:09;;;;;;;1.80;1.20;;;27.10;60.50;;;;;;5109358;28;20035;-66
2023/09/04 11:22:35;;;;;;;1.00;0.85;;;27.10;60.70;;;;;;5107679;28;20040;-67
2023/09/04 11:25:01;;;;;;;0.60;0.60;;;27.20;60.70;;;;;;5110053;28;20038;-68
2023/09/04 11:27:27;;;;;;;1.58;1.30;;;27.20;60.70;;;;;;5107910;28;20015;-67
2023/09/04 11:29:54;;;;;;;1.38;0.90;;;27.30;60.30;;;;;;5112127;27;20039;-67
2023/09/04 11:32:20;;;;;;;1.20;0.90;;;27.40;60.30;;;;;;5109654;28;20114;-67
2023/09/04 11:34:47;;;;;;;0.88;0.88;;;27.50;60.20;;;;;;5109610;28;20086;-67
2023/09/04 11:37:13;;;;;;;1.05;0.98;;;27.60;60.00;;;;;;5109799;27;20042;-68
2023/09/04 11:39:52;;;;;;;0.80;0.70;;;27.60;59.80;;;;;;5108363;28;20067;-68
2023/09/04 11:42:24;;;;;;;0.73;0.68;;;27.80;59.80;;;;;;5109553;28;20035;-67
2023/09/04 11:44:49;;;;;;;1.10;0.88;;;27.90;59.50;;;;;;5107340;28;20397;-67
2023/09/04 11:47:19;;;;;;;1.00;0.90;;;27.90;59.40;;;;;;5109045;28;20028;-68
2023/09/04 11:49:46;;;;;;;1.30;1.05;;;28.00;59.10;;;;;;5107634;28;20141;-67
2023/09/04 11:52:13;;;;;;;1.40;1.17;;;28.10;59.10;;;;;;5108616;28;20497;-67
2023/09/04 11:54:42;;;;;;;0.88;0.75;;;28.10;59.00;;;;;;5109059;28;20063;-67
2023/09/04 11:57:11;;;;;;;0.82;0.82;;;28.10;58.50;;;;;;5106929;28;20127;-68
2023/09/04 11:59:38;;;;;;;1.67;0.95;;;28.10;58.60;;;;;;5108502;28;20040;-68
2023/09/04 12:02:05;;;;;;;0.80;0.77;;;28.10;58.50;;;;;;5109700;27;20036;-67
2023/09/04 12:04:32;;;;;;;1.60;1.17;;;28.10;58.00;;;;;;5109203;28;20027;-67
2023/09/04 12:07:07;;;;;;;1.70;1.15;;;28.10;58.10;;;;;;5104338;28;20138;-68
2023/09/04 12:09:36;;;;;;;1.73;1.13;;;28.10;58.00;;;;;;5104684;28;20144;-68
2023/09/04 12:12:03;;;;;;;1.10;1.00;;;28.20;57.70;;;;;;5104094;27;20039;-68
2023/09/04 12:14:28;;;;;;;1.63;1.50;;;28.30;57.50;;;;;;5106338;27;20386;-66
2023/09/04 12:16:54;;;;;;;1.90;1.00;;;28.40;57.20;;;;;;5107923;27;20031;-67
2023/09/04 12:19:24;;;;;;;1.60;0.95;;;28.40;56.90;;;;;;5107973;28;20505;-65
2023/09/04 12:21:51;;;;;;;3.90;1.23;;;28.50;56.60;;;;;;5108792;27;20031;-66
2023/09/04 12:24:18;;;;;;;1.25;1.10;;;28.60;56.10;;;;;;5095988;28;20675;-65
2023/09/04 12:26:47;;;;;;;0.82;0.70;;;28.70;55.80;;;;;;5104404;28;20028;-66
2023/09/04 12:29:13;;;;;;;0.77;0.73;;;28.80;55.90;;;;;;5102857;28;20235;-66
2023/09/04 12:31:38;;;;;;;1.48;1.13;;;28.90;55.90;;;;;;5096002;28;20056;-66
2023/09/04 12:34:04;;;;;;;1.67;1.55;;;29.00;55.20;;;;;;5081016;28;20580;-66
2023/09/04 12:36:32;;;;;;;1.58;1.27;;;29.10;55.00;;;;;;5097612;28;20039;-66
2023/09/04 12:38:57;;;;;;;3.33;0.98;;;29.10;54.20;;;;;;5100203;28;20024;-66
2023/09/04 12:41:23;;;;;;;1.45;1.35;;;29.10;54.70;;;;;;5109240;28;20028;-66
2023/09/04 12:43:49;;;;;;;1.10;1.00;;;29.20;54.70;;;;;;5106517;28;20035;-66
2023/09/04 12:46:14;;;;;;;1.02;0.93;;;29.20;54.40;;;;;;5106422;28;20036;-66
2023/09/04 12:48:43;;;;;;;0.90;0.90;;;29.30;54.30;;;;;;5103837;28;20032;-66